sensor_id;sensor_type;location;lat;lon;timestamp;P1;durP1;ratioP1;P2;durP2;ratioP2
55346;SDS011;41218;55.700;38.270;2023-05-07T00:02:30;6.88;;;3.30;;
55346;SDS011;41218;55.700;38.270;2023-05-07T00:07:34;8.55;;;3.60;;
55346;SDS011;41218;55.700;38.270;2023-05-07T00:12:35;10.67;;;3.57;;
55346;SDS011;41218;55.700;38.270;2023-05-07T00:17:35;7.13;;;3.50;;
55346;SDS011;41218;55.700;38.270;2023-05-07T00:22:37;7.28;;;3.33;;
55346;SDS011;41218;55.700;38.270;2023-05-07T00:27:37;10.70;;;3.10;;
55346;SDS011;41218;55.700;38.270;2023-05-07T00:32:38;7.37;;;3.47;;
55346;SDS011;41218;55.700;38.270;2023-05-07T00:37:39;7.85;;;3.40;;
55346;SDS011;41218;55.700;38.270;2023-05-07T00:42:39;6.37;;;3.03;;
55346;SDS011;41218;55.700;38.270;2023-05-07T00:47:40;8.80;;;3.53;;
55346;SDS011;41218;55.700;38.270;2023-05-07T00:52:41;9.73;;;3.08;;
55346;SDS011;41218;55.700;38.270;2023-05-07T00:57:42;6.70;;;3.10;;
55346;SDS011;41218;55.700;38.270;2023-05-07T01:02:44;8.15;;;3.10;;
55346;SDS011;41218;55.700;38.270;2023-05-07T01:07:46;10.38;;;3.35;;
55346;SDS011;41218;55.700;38.270;2023-05-07T01:12:47;7.57;;;3.22;;
55346;SDS011;41218;55.700;38.270;2023-05-07T01:17:49;9.00;;;3.00;;
55346;SDS011;41218;55.700;38.270;2023-05-07T01:22:50;8.27;;;3.60;;
55346;SDS011;41218;55.700;38.270;2023-05-07T01:27:51;6.35;;;3.08;;
55346;SDS011;41218;55.700;38.270;2023-05-07T01:32:56;6.73;;;3.13;;
55346;SDS011;41218;55.700;38.270;2023-05-07T01:38:04;7.30;;;3.28;;
55346;SDS011;41218;55.700;38.270;2023-05-07T01:43:06;8.07;;;3.30;;
55346;SDS011;41218;55.700;38.270;2023-05-07T01:48:07;7.97;;;3.60;;
55346;SDS011;41218;55.700;38.270;2023-05-07T01:53:10;6.55;;;3.28;;
55346;SDS011;41218;55.700;38.270;2023-05-07T01:58:10;7.07;;;3.13;;
55346;SDS011;41218;55.700;38.270;2023-05-07T02:03:11;6.28;;;3.22;;
55346;SDS011;41218;55.700;38.270;2023-05-07T02:08:12;6.30;;;3.40;;
55346;SDS011;41218;55.700;38.270;2023-05-07T02:13:12;9.70;;;3.70;;
55346;SDS011;41218;55.700;38.270;2023-05-07T02:18:13;5.60;;;3.03;;
55346;SDS011;41218;55.700;38.270;2023-05-07T02:23:13;7.10;;;3.30;;
55346;SDS011;41218;55.700;38.270;2023-05-07T02:28:14;9.85;;;3.47;;
55346;SDS011;41218;55.700;38.270;2023-05-07T02:33:15;10.25;;;3.33;;
55346;SDS011;41218;55.700;38.270;2023-05-07T02:38:16;6.50;;;3.23;;
55346;SDS011;41218;55.700;38.270;2023-05-07T02:43:16;8.13;;;3.80;;
55346;SDS011;41218;55.700;38.270;2023-05-07T02:48:17;7.80;;;3.80;;
55346;SDS011;41218;55.700;38.270;2023-05-07T02:53:18;8.83;;;3.10;;
55346;SDS011;41218;55.700;38.270;2023-05-07T02:58:18;8.17;;;3.53;;
55346;SDS011;41218;55.700;38.270;2023-05-07T03:03:19;10.15;;;3.58;;
55346;SDS011;41218;55.700;38.270;2023-05-07T03:08:20;8.32;;;3.83;;
55346;SDS011;41218;55.700;38.270;2023-05-07T03:13:21;7.47;;;3.57;;
55346;SDS011;41218;55.700;38.270;2023-05-07T03:18:22;12.82;;;3.38;;
55346;SDS011;41218;55.700;38.270;2023-05-07T03:23:23;5.30;;;3.33;;
55346;SDS011;41218;55.700;38.270;2023-05-07T03:28:23;8.83;;;3.43;;
55346;SDS011;41218;55.700;38.270;2023-05-07T03:33:24;7.93;;;2.63;;
55346;SDS011;41218;55.700;38.270;2023-05-07T03:38:30;7.90;;;2.92;;
55346;SDS011;41218;55.700;38.270;2023-05-07T03:43:44;6.10;;;3.17;;
55346;SDS011;41218;55.700;38.270;2023-05-07T03:48:56;4.78;;;2.13;;
55346;SDS011;41218;55.700;38.270;2023-05-07T03:53:56;4.57;;;2.23;;
55346;SDS011;41218;55.700;38.270;2023-05-07T03:58:57;4.83;;;2.40;;
55346;SDS011;41218;55.700;38.270;2023-05-07T04:04:01;5.47;;;2.43;;
55346;SDS011;41218;55.700;38.270;2023-05-07T04:09:04;5.32;;;2.47;;
55346;SDS011;41218;55.700;38.270;2023-05-07T04:14:04;3.80;;;1.90;;
55346;SDS011;41218;55.700;38.270;2023-05-07T04:19:05;5.57;;;1.90;;
55346;SDS011;41218;55.700;38.270;2023-05-07T04:24:06;2.93;;;1.37;;
55346;SDS011;41218;55.700;38.270;2023-05-07T04:29:06;2.72;;;1.45;;
55346;SDS011;41218;55.700;38.270;2023-05-07T04:34:07;3.67;;;1.63;;
55346;SDS011;41218;55.700;38.270;2023-05-07T04:39:09;4.78;;;1.73;;
55346;SDS011;41218;55.700;38.270;2023-05-07T04:44:10;3.38;;;2.03;;
55346;SDS011;41218;55.700;38.270;2023-05-07T04:49:11;5.40;;;2.03;;
55346;SDS011;41218;55.700;38.270;2023-05-07T04:54:12;3.93;;;1.80;;
55346;SDS011;41218;55.700;38.270;2023-05-07T04:59:20;4.60;;;1.90;;
55346;SDS011;41218;55.700;38.270;2023-05-07T05:04:33;3.75;;;2.17;;
55346;SDS011;41218;55.700;38.270;2023-05-07T05:09:36;3.22;;;1.40;;
55346;SDS011;41218;55.700;38.270;2023-05-07T05:14:37;1.90;;;1.40;;
55346;SDS011;41218;55.700;38.270;2023-05-07T05:19:38;3.77;;;1.90;;
55346;SDS011;41218;55.700;38.270;2023-05-07T05:24:38;4.37;;;1.60;;
55346;SDS011;41218;55.700;38.270;2023-05-07T05:29:39;3.93;;;1.60;;
55346;SDS011;41218;55.700;38.270;2023-05-07T05:34:40;2.83;;;1.60;;
55346;SDS011;41218;55.700;38.270;2023-05-07T05:39:40;2.40;;;1.60;;
55346;SDS011;41218;55.700;38.270;2023-05-07T05:44:42;3.00;;;1.27;;
55346;SDS011;41218;55.700;38.270;2023-05-07T05:49:43;4.27;;;1.43;;
55346;SDS011;41218;55.700;38.270;2023-05-07T05:54:43;3.27;;;1.37;;
55346;SDS011;41218;55.700;38.270;2023-05-07T05:59:44;1.10;;;0.77;;
55346;SDS011;41218;55.700;38.270;2023-05-07T06:04:52;2.15;;;1.40;;
55346;SDS011;41218;55.700;38.270;2023-05-07T06:10:04;1.67;;;1.15;;
55346;SDS011;41218;55.700;38.270;2023-05-07T06:15:13;4.80;;;1.42;;
55346;SDS011;41218;55.700;38.270;2023-05-07T06:20:19;2.03;;;1.00;;
55346;SDS011;41218;55.700;38.270;2023-05-07T06:25:20;2.13;;;1.20;;
55346;SDS011;41218;55.700;38.270;2023-05-07T06:30:21;2.93;;;1.30;;
55346;SDS011;41218;55.700;38.270;2023-05-07T06:35:21;2.80;;;1.30;;
55346;SDS011;41218;55.700;38.270;2023-05-07T06:40:29;2.73;;;1.40;;
55346;SDS011;41218;55.700;38.270;2023-05-07T06:45:30;2.22;;;1.35;;
55346;SDS011;41218;55.700;38.270;2023-05-07T06:50:31;3.10;;;1.27;;
55346;SDS011;41218;55.700;38.270;2023-05-07T06:55:31;3.77;;;1.70;;
55346;SDS011;41218;55.700;38.270;2023-05-07T07:00:40;3.45;;;1.48;;
55346;SDS011;41218;55.700;38.270;2023-05-07T07:05:41;1.67;;;1.30;;
55346;SDS011;41218;55.700;38.270;2023-05-07T07:10:51;2.83;;;1.70;;
55346;SDS011;41218;55.700;38.270;2023-05-07T07:15:52;5.30;;;1.50;;
55346;SDS011;41218;55.700;38.270;2023-05-07T07:20:53;2.92;;;1.70;;
55346;SDS011;41218;55.700;38.270;2023-05-07T07:26:02;1.65;;;1.15;;
55346;SDS011;41218;55.700;38.270;2023-05-07T07:31:03;2.55;;;1.50;;
55346;SDS011;41218;55.700;38.270;2023-05-07T07:36:04;1.60;;;1.30;;
55346;SDS011;41218;55.700;38.270;2023-05-07T07:41:07;1.80;;;1.40;;
55346;SDS011;41218;55.700;38.270;2023-05-07T07:46:11;2.47;;;1.20;;
55346;SDS011;41218;55.700;38.270;2023-05-07T07:51:12;1.67;;;1.10;;
55346;SDS011;41218;55.700;38.270;2023-05-07T07:56:13;2.97;;;1.80;;
55346;SDS011;41218;55.700;38.270;2023-05-07T08:01:30;2.67;;;1.00;;
55346;SDS011;41218;55.700;38.270;2023-05-07T08:06:31;1.65;;;1.30;;
55346;SDS011;41218;55.700;38.270;2023-05-07T08:11:31;2.17;;;1.20;;
55346;SDS011;41218;55.700;38.270;2023-05-07T08:16:32;2.17;;;1.33;;
55346;SDS011;41218;55.700;38.270;2023-05-07T08:21:33;2.17;;;1.20;;
55346;SDS011;41218;55.700;38.270;2023-05-07T08:26:34;1.83;;;1.30;;
55346;SDS011;41218;55.700;38.270;2023-05-07T08:31:36;1.48;;;1.05;;
55346;SDS011;41218;55.700;38.270;2023-05-07T08:36:43;2.40;;;1.38;;
55346;SDS011;41218;55.700;38.270;2023-05-07T08:41:46;5.60;;;1.52;;
55346;SDS011;41218;55.700;38.270;2023-05-07T08:46:48;1.60;;;1.10;;
55346;SDS011;41218;55.700;38.270;2023-05-07T08:51:54;1.67;;;1.25;;
55346;SDS011;41218;55.700;38.270;2023-05-07T08:56:55;3.03;;;1.55;;
55346;SDS011;41218;55.700;38.270;2023-05-07T09:01:56;3.23;;;1.50;;
55346;SDS011;41218;55.700;38.270;2023-05-07T09:06:57;1.87;;;1.07;;
55346;SDS011;41218;55.700;38.270;2023-05-07T09:12:03;2.45;;;1.33;;
55346;SDS011;41218;55.700;38.270;2023-05-07T09:17:04;2.40;;;1.42;;
55346;SDS011;41218;55.700;38.270;2023-05-07T09:22:05;2.83;;;1.63;;
55346;SDS011;41218;55.700;38.270;2023-05-07T09:27:09;1.95;;;1.20;;
55346;SDS011;41218;55.700;38.270;2023-05-07T09:32:13;2.53;;;1.05;;
55346;SDS011;41218;55.700;38.270;2023-05-07T09:37:15;3.05;;;1.08;;
55346;SDS011;41218;55.700;38.270;2023-05-07T09:42:15;1.23;;;0.90;;
55346;SDS011;41218;55.700;38.270;2023-05-07T09:47:18;4.70;;;1.20;;
55346;SDS011;41218;55.700;38.270;2023-05-07T09:52:21;1.42;;;0.90;;
55346;SDS011;41218;55.700;38.270;2023-05-07T09:57:23;1.67;;;1.10;;
55346;SDS011;41218;55.700;38.270;2023-05-07T10:02:25;2.45;;;0.80;;
55346;SDS011;41218;55.700;38.270;2023-05-07T10:07:31;4.57;;;2.08;;
55346;SDS011;41218;55.700;38.270;2023-05-07T10:12:32;2.90;;;1.50;;
55346;SDS011;41218;55.700;38.270;2023-05-07T10:17:39;1.92;;;1.27;;
55346;SDS011;41218;55.700;38.270;2023-05-07T10:22:41;1.50;;;1.10;;
55346;SDS011;41218;55.700;38.270;2023-05-07T10:27:46;1.80;;;0.98;;
55346;SDS011;41218;55.700;38.270;2023-05-07T10:32:50;2.35;;;1.20;;
55346;SDS011;41218;55.700;38.270;2023-05-07T10:37:55;2.42;;;1.30;;
55346;SDS011;41218;55.700;38.270;2023-05-07T10:43:03;2.40;;;1.30;;
55346;SDS011;41218;55.700;38.270;2023-05-07T11:03:22;2.13;;;1.38;;
55346;SDS011;41218;55.700;38.270;2023-05-07T11:08:23;2.60;;;1.20;;
55346;SDS011;41218;55.700;38.270;2023-05-07T11:18:51;2.20;;;1.15;;
55346;SDS011;41218;55.700;38.270;2023-05-07T11:28:53;2.80;;;1.23;;
55346;SDS011;41218;55.700;38.270;2023-05-07T11:33:55;3.58;;;1.10;;
55346;SDS011;41218;55.700;38.270;2023-05-07T11:38:55;2.63;;;1.67;;
55346;SDS011;41218;55.700;38.270;2023-05-07T11:43:56;3.63;;;1.10;;
55346;SDS011;41218;55.700;38.270;2023-05-07T11:48:58;2.08;;;1.10;;
55346;SDS011;41218;55.700;38.270;2023-05-07T11:54:00;3.53;;;1.02;;
55346;SDS011;41218;55.700;38.270;2023-05-07T11:59:07;3.47;;;1.50;;
55346;SDS011;41218;55.700;38.270;2023-05-07T12:04:08;4.47;;;1.67;;
55346;SDS011;41218;55.700;38.270;2023-05-07T12:09:11;3.72;;;1.30;;
55346;SDS011;41218;55.700;38.270;2023-05-07T12:14:12;2.60;;;1.67;;
55346;SDS011;41218;55.700;38.270;2023-05-07T12:19:13;2.97;;;1.50;;
55346;SDS011;41218;55.700;38.270;2023-05-07T12:24:14;2.38;;;1.60;;
55346;SDS011;41218;55.700;38.270;2023-05-07T12:29:15;2.97;;;1.60;;
55346;SDS011;41218;55.700;38.270;2023-05-07T12:34:16;2.63;;;1.57;;
55346;SDS011;41218;55.700;38.270;2023-05-07T12:39:16;4.80;;;1.57;;
55346;SDS011;41218;55.700;38.270;2023-05-07T12:44:17;2.20;;;1.30;;
55346;SDS011;41218;55.700;38.270;2023-05-07T12:49:17;3.27;;;1.57;;
55346;SDS011;41218;55.700;38.270;2023-05-07T12:54:28;3.50;;;1.30;;
55346;SDS011;41218;55.700;38.270;2023-05-07T12:59:36;2.40;;;1.35;;
55346;SDS011;41218;55.700;38.270;2023-05-07T13:04:41;2.08;;;1.42;;
55346;SDS011;41218;55.700;38.270;2023-05-07T13:09:41;3.00;;;1.80;;
55346;SDS011;41218;55.700;38.270;2023-05-07T13:14:42;5.50;;;1.57;;
55346;SDS011;41218;55.700;38.270;2023-05-07T13:19:42;2.10;;;1.40;;
55346;SDS011;41218;55.700;38.270;2023-05-07T13:24:43;3.50;;;1.83;;
55346;SDS011;41218;55.700;38.270;2023-05-07T13:29:44;3.17;;;1.90;;
55346;SDS011;41218;55.700;38.270;2023-05-07T13:34:44;3.60;;;1.80;;
55346;SDS011;41218;55.700;38.270;2023-05-07T13:39:45;2.27;;;1.67;;
55346;SDS011;41218;55.700;38.270;2023-05-07T13:44:45;2.87;;;1.80;;
55346;SDS011;41218;55.700;38.270;2023-05-07T13:49:46;3.30;;;1.73;;
55346;SDS011;41218;55.700;38.270;2023-05-07T13:54:49;2.47;;;1.60;;
55346;SDS011;41218;55.700;38.270;2023-05-07T13:59:52;3.40;;;1.80;;
55346;SDS011;41218;55.700;38.270;2023-05-07T14:04:52;2.23;;;1.37;;
55346;SDS011;41218;55.700;38.270;2023-05-07T14:09:54;4.00;;;1.50;;
55346;SDS011;41218;55.700;38.270;2023-05-07T14:19:57;3.47;;;2.05;;
55346;SDS011;41218;55.700;38.270;2023-05-07T14:24:57;4.15;;;2.50;;
55346;SDS011;41218;55.700;38.270;2023-05-07T14:29:58;3.27;;;1.87;;
55346;SDS011;41218;55.700;38.270;2023-05-07T14:34:58;3.90;;;1.90;;
55346;SDS011;41218;55.700;38.270;2023-05-07T14:39:59;2.47;;;1.70;;
55346;SDS011;41218;55.700;38.270;2023-05-07T14:45:00;4.50;;;1.90;;
55346;SDS011;41218;55.700;38.270;2023-05-07T14:50:05;4.50;;;1.60;;
55346;SDS011;41218;55.700;38.270;2023-05-07T14:55:06;4.10;;;1.65;;
55346;SDS011;41218;55.700;38.270;2023-05-07T15:00:11;1.90;;;1.45;;
55346;SDS011;41218;55.700;38.270;2023-05-07T15:05:18;2.38;;;1.52;;
55346;SDS011;41218;55.700;38.270;2023-05-07T15:10:19;3.47;;;1.60;;
55346;SDS011;41218;55.700;38.270;2023-05-07T15:15:20;4.37;;;2.30;;
55346;SDS011;41218;55.700;38.270;2023-05-07T15:20:20;2.77;;;1.87;;
55346;SDS011;41218;55.700;38.270;2023-05-07T15:25:21;3.00;;;1.73;;
55346;SDS011;41218;55.700;38.270;2023-05-07T15:35:23;3.20;;;2.20;;
55346;SDS011;41218;55.700;38.270;2023-05-07T15:40:25;5.40;;;2.97;;
55346;SDS011;41218;55.700;38.270;2023-05-07T15:45:26;4.33;;;2.00;;
55346;SDS011;41218;55.700;38.270;2023-05-07T15:50:26;2.40;;;1.83;;
55346;SDS011;41218;55.700;38.270;2023-05-07T15:55:29;2.15;;;1.80;;
55346;SDS011;41218;55.700;38.270;2023-05-07T16:00:32;5.47;;;2.35;;
55346;SDS011;41218;55.700;38.270;2023-05-07T16:05:35;2.55;;;1.50;;
55346;SDS011;41218;55.700;38.270;2023-05-07T16:10:36;2.17;;;1.42;;
55346;SDS011;41218;55.700;38.270;2023-05-07T16:15:37;2.80;;;1.90;;
55346;SDS011;41218;55.700;38.270;2023-05-07T16:20:41;2.83;;;1.83;;
55346;SDS011;41218;55.700;38.270;2023-05-07T16:25:42;2.70;;;1.88;;
55346;SDS011;41218;55.700;38.270;2023-05-07T16:30:43;3.50;;;1.90;;
55346;SDS011;41218;55.700;38.270;2023-05-07T16:35:45;2.47;;;1.87;;
55346;SDS011;41218;55.700;38.270;2023-05-07T16:40:51;2.90;;;1.92;;
55346;SDS011;41218;55.700;38.270;2023-05-07T16:45:52;2.92;;;1.77;;
55346;SDS011;41218;55.700;38.270;2023-05-07T16:50:52;2.70;;;1.80;;
55346;SDS011;41218;55.700;38.270;2023-05-07T16:55:53;3.53;;;2.00;;
55346;SDS011;41218;55.700;38.270;2023-05-07T17:00:55;3.42;;;1.90;;
55346;SDS011;41218;55.700;38.270;2023-05-07T17:05:56;5.03;;;2.40;;
55346;SDS011;41218;55.700;38.270;2023-05-07T17:10:56;5.03;;;2.13;;
55346;SDS011;41218;55.700;38.270;2023-05-07T17:15:57;4.23;;;1.87;;
55346;SDS011;41218;55.700;38.270;2023-05-07T17:20:58;3.57;;;2.10;;
55346;SDS011;41218;55.700;38.270;2023-05-07T17:25:58;3.77;;;2.00;;
55346;SDS011;41218;55.700;38.270;2023-05-07T17:30:59;7.40;;;1.97;;
55346;SDS011;41218;55.700;38.270;2023-05-07T17:36:00;3.75;;;1.92;;
55346;SDS011;41218;55.700;38.270;2023-05-07T17:41:04;4.35;;;1.98;;
55346;SDS011;41218;55.700;38.270;2023-05-07T17:46:10;4.95;;;2.22;;
55346;SDS011;41218;55.700;38.270;2023-05-07T17:51:10;4.77;;;2.73;;
55346;SDS011;41218;55.700;38.270;2023-05-07T17:56:12;5.65;;;2.60;;
55346;SDS011;41218;55.700;38.270;2023-05-07T18:01:14;4.80;;;2.30;;
55346;SDS011;41218;55.700;38.270;2023-05-07T18:06:18;4.40;;;2.70;;
55346;SDS011;41218;55.700;38.270;2023-05-07T18:11:21;5.50;;;3.45;;
55346;SDS011;41218;55.700;38.270;2023-05-07T18:16:23;7.13;;;3.72;;
55346;SDS011;41218;55.700;38.270;2023-05-07T18:21:27;5.45;;;3.17;;
55346;SDS011;41218;55.700;38.270;2023-05-07T18:26:29;6.47;;;3.90;;
55346;SDS011;41218;55.700;38.270;2023-05-07T18:31:33;7.03;;;3.75;;
55346;SDS011;41218;55.700;38.270;2023-05-07T18:36:38;7.15;;;4.00;;
55346;SDS011;41218;55.700;38.270;2023-05-07T18:41:44;7.00;;;4.20;;
55346;SDS011;41218;55.700;38.270;2023-05-07T18:46:47;7.35;;;4.00;;
55346;SDS011;41218;55.700;38.270;2023-05-07T18:51:50;9.43;;;4.72;;
55346;SDS011;41218;55.700;38.270;2023-05-07T19:01:55;16.38;;;5.60;;
55346;SDS011;41218;55.700;38.270;2023-05-07T19:06:59;12.60;;;5.60;;
55346;SDS011;41218;55.700;38.270;2023-05-07T19:12:02;8.95;;;4.60;;
55346;SDS011;41218;55.700;38.270;2023-05-07T19:17:19;10.40;;;5.35;;
55346;SDS011;41218;55.700;38.270;2023-05-07T19:22:40;11.15;;;5.63;;
55346;SDS011;41218;55.700;38.270;2023-05-07T19:27:44;13.25;;;6.38;;
55346;SDS011;41218;55.700;38.270;2023-05-07T19:32:48;16.90;;;8.70;;
55346;SDS011;41218;55.700;38.270;2023-05-07T19:37:54;20.58;;;9.35;;
55346;SDS011;41218;55.700;38.270;2023-05-07T19:42:57;15.13;;;7.45;;
55346;SDS011;41218;55.700;38.270;2023-05-07T19:47:59;16.17;;;7.17;;
55346;SDS011;41218;55.700;38.270;2023-05-07T19:53:02;15.07;;;7.30;;
55346;SDS011;41218;55.700;38.270;2023-05-07T19:58:03;19.03;;;8.90;;
55346;SDS011;41218;55.700;38.270;2023-05-07T20:03:04;19.43;;;9.77;;
55346;SDS011;41218;55.700;38.270;2023-05-07T20:08:07;19.60;;;9.93;;
55346;SDS011;41218;55.700;38.270;2023-05-07T20:13:10;19.50;;;8.70;;
55346;SDS011;41218;55.700;38.270;2023-05-07T20:18:12;16.48;;;7.90;;
55346;SDS011;41218;55.700;38.270;2023-05-07T20:23:15;16.27;;;7.43;;
55346;SDS011;41218;55.700;38.270;2023-05-07T20:28:16;15.45;;;7.40;;
55346;SDS011;41218;55.700;38.270;2023-05-07T20:33:16;13.43;;;6.87;;
55346;SDS011;41218;55.700;38.270;2023-05-07T20:38:17;19.20;;;7.67;;
55346;SDS011;41218;55.700;38.270;2023-05-07T20:43:17;16.13;;;8.07;;
55346;SDS011;41218;55.700;38.270;2023-05-07T20:48:18;19.87;;;9.27;;
55346;SDS011;41218;55.700;38.270;2023-05-07T20:53:19;19.27;;;8.68;;
55346;SDS011;41218;55.700;38.270;2023-05-07T20:58:20;17.93;;;8.03;;
55346;SDS011;41218;55.700;38.270;2023-05-07T21:03:24;17.92;;;8.30;;
55346;SDS011;41218;55.700;38.270;2023-05-07T21:08:25;20.07;;;8.20;;
55346;SDS011;41218;55.700;38.270;2023-05-07T21:18:26;23.07;;;8.87;;
55346;SDS011;41218;55.700;38.270;2023-05-07T21:23:30;19.77;;;8.65;;
55346;SDS011;41218;55.700;38.270;2023-05-07T21:28:31;17.77;;;8.43;;
55346;SDS011;41218;55.700;38.270;2023-05-07T21:33:33;23.17;;;7.90;;
55346;SDS011;41218;55.700;38.270;2023-05-07T21:38:36;16.77;;;8.17;;
55346;SDS011;41218;55.700;38.270;2023-05-07T21:43:37;18.83;;;8.55;;
55346;SDS011;41218;55.700;38.270;2023-05-07T21:48:37;19.50;;;8.83;;
55346;SDS011;41218;55.700;38.270;2023-05-07T21:53:38;20.30;;;8.43;;
55346;SDS011;41218;55.700;38.270;2023-05-07T21:58:39;17.40;;;8.40;;
55346;SDS011;41218;55.700;38.270;2023-05-07T22:03:39;23.73;;;9.73;;
55346;SDS011;41218;55.700;38.270;2023-05-07T22:08:40;21.00;;;9.93;;
55346;SDS011;41218;55.700;38.270;2023-05-07T22:13:41;17.00;;;9.27;;
55346;SDS011;41218;55.700;38.270;2023-05-07T22:18:42;18.90;;;9.43;;
55346;SDS011;41218;55.700;38.270;2023-05-07T22:23:43;21.00;;;9.27;;
55346;SDS011;41218;55.700;38.270;2023-05-07T22:28:43;21.17;;;9.90;;
55346;SDS011;41218;55.700;38.270;2023-05-07T22:33:44;21.95;;;9.02;;
55346;SDS011;41218;55.700;38.270;2023-05-07T22:38:47;18.33;;;9.27;;
55346;SDS011;41218;55.700;38.270;2023-05-07T22:43:48;21.40;;;9.40;;
55346;SDS011;41218;55.700;38.270;2023-05-07T22:48:48;22.23;;;9.10;;
55346;SDS011;41218;55.700;38.270;2023-05-07T22:53:49;21.20;;;9.47;;
55346;SDS011;41218;55.700;38.270;2023-05-07T22:58:50;21.30;;;9.30;;
55346;SDS011;41218;55.700;38.270;2023-05-07T23:03:50;19.00;;;9.17;;
55346;SDS011;41218;55.700;38.270;2023-05-07T23:08:51;16.98;;;8.32;;
55346;SDS011;41218;55.700;38.270;2023-05-07T23:13:52;15.90;;;8.48;;
55346;SDS011;41218;55.700;38.270;2023-05-07T23:18:53;20.00;;;8.63;;
55346;SDS011;41218;55.700;38.270;2023-05-07T23:28:55;19.92;;;8.77;;
55346;SDS011;41218;55.700;38.270;2023-05-07T23:33:56;21.00;;;8.40;;
55346;SDS011;41218;55.700;38.270;2023-05-07T23:38:57;16.97;;;8.00;;
55346;SDS011;41218;55.700;38.270;2023-05-07T23:43:57;15.45;;;7.45;;
55346;SDS011;41218;55.700;38.270;2023-05-07T23:48:58;15.57;;;6.60;;
55346;SDS011;41218;55.700;38.270;2023-05-07T23:53:58;15.73;;;6.30;;
55346;SDS011;41218;55.700;38.270;2023-05-07T23:58:59;18.77;;;6.85;;
